Terminal Aerodrome Forecast
Issued by NWS Blacksburg, VA

Home | Current Version | Previous Version | Text Only | Print | Product List | Glossary On
Versions: 1 2 3 4 5 6 7 8 9 10 11 12 13 14 15 16 17 18 19 20 21 22 23 24 25 26 27 28
000
FTUS41 KRNK 011123 CCA
TAFLYH
TAF COR
KLYH 011123Z 0112/0212 00000KT P6SM SCT001
      TEMPO 0112/0113 4SM BR
     FM011300 01004KT P6SM SCT035
     FM012100 07005KT P6SM SCT050
     FM020800 00000KT 3SM BR SCT100=

USA.gov is the U.S. government's official web portal to all federal, state and local government web resources and services.